Time;durP1;ratioP1;P1;durP2;ratioP2;P2;SDS_P1;SDS_P2;PMS_P1;PMS_P2;Temp;Humidity;BMP_temperature;BMP_pressure;BME280_temperature;BME280_humidity;BME280_pressure;Samples;Min_cycle;Max_cycle;Signal;HPM_P1;HPM_P2
2023/05/02 00:01:09;;;;;;;23.33;12.43;;;10.80;99.90;;;;;;5103234;28;20126;-59
2023/05/02 00:03:35;;;;;;;23.83;11.85;;;10.80;99.90;;;;;;5103470;28;20092;-64
2023/05/02 00:06:01;;;;;;;21.27;11.50;;;10.80;99.90;;;;;;5102517;28;20463;-58
2023/05/02 00:08:26;;;;;;;14.35;8.90;;;10.80;99.90;;;;;;5103373;28;20122;-65
2023/05/02 00:10:52;;;;;;;11.45;7.22;;;10.80;99.90;;;;;;5103312;28;20052;-60
2023/05/02 00:13:18;;;;;;;8.65;5.90;;;10.80;99.90;;;;;;5103029;28;20038;-57
2023/05/02 00:15:43;;;;;;;8.30;5.35;;;10.80;99.90;;;;;;5103036;28;20311;-62
2023/05/02 00:18:09;;;;;;;8.93;5.38;;;10.80;99.90;;;;;;5102912;28;20044;-51
2023/05/02 00:20:34;;;;;;;10.52;5.97;;;10.60;99.90;;;;;;5102430;28;20497;-63
2023/05/02 00:23:00;;;;;;;9.32;6.15;;;10.50;99.90;;;;;;5103249;28;20043;-66
2023/05/02 00:25:26;;;;;;;12.13;7.15;;;10.50;99.90;;;;;;5101707;28;20058;-55
2023/05/02 00:27:51;;;;;;;10.98;6.65;;;10.50;99.90;;;;;;5102879;28;20215;-64
2023/05/02 00:30:18;;;;;;;12.98;6.93;;;10.40;99.90;;;;;;5102914;28;20036;-59
2023/05/02 00:32:44;;;;;;;13.70;7.82;;;10.30;99.90;;;;;;5102146;28;20040;-66
2023/05/02 00:35:10;;;;;;;13.48;7.78;;;10.30;99.90;;;;;;5102916;28;20036;-65
2023/05/02 00:37:35;;;;;;;14.80;6.93;;;10.20;99.90;;;;;;5101732;28;20047;-59
2023/05/02 00:40:02;;;;;;;16.67;7.35;;;10.20;99.90;;;;;;5102729;28;20079;-66
2023/05/02 00:42:30;;;;;;;16.33;7.55;;;10.20;99.90;;;;;;5102496;28;20052;-57
2023/05/02 00:44:56;;;;;;;13.07;7.13;;;10.10;99.90;;;;;;5103127;27;20422;-64
2023/05/02 00:47:22;;;;;;;15.48;7.25;;;10.10;99.90;;;;;;5102727;28;20044;-59
2023/05/02 00:49:49;;;;;;;15.43;7.35;;;10.10;99.90;;;;;;5102250;28;20418;-63
2023/05/02 00:52:14;;;;;;;15.57;7.72;;;10.10;99.90;;;;;;5101859;28;20039;-63
2023/05/02 00:54:40;;;;;;;11.98;7.07;;;10.30;99.90;;;;;;5102162;28;20043;-62
2023/05/02 00:57:06;;;;;;;13.10;7.07;;;10.10;99.90;;;;;;5102216;28;20083;-64
2023/05/02 00:59:35;;;;;;;11.95;7.32;;;10.10;99.90;;;;;;5101999;28;20097;-53
2023/05/02 01:02:24;;;;;;;16.08;7.78;;;10.10;99.90;;;;;;5102424;28;20043;-64
2023/05/02 01:04:52;;;;;;;11.30;7.00;;;10.10;99.90;;;;;;5101167;28;20058;-65
2023/05/02 01:07:30;;;;;;;12.18;7.00;;;10.20;99.90;;;;;;5101445;28;20039;-55
2023/05/02 01:10:06;;;;;;;14.07;7.25;;;10.20;99.90;;;;;;5101653;28;20618;-66
2023/05/02 01:12:47;;;;;;;13.13;7.22;;;10.20;99.90;;;;;;5083789;28;20334;-62
2023/05/02 01:15:21;;;;;;;10.82;7.07;;;10.20;99.90;;;;;;5120516;27;20505;-66
2023/05/02 01:17:48;;;;;;;11.23;7.03;;;10.10;99.90;;;;;;5122962;27;20039;-66
2023/05/02 01:20:19;;;;;;;11.55;7.15;;;10.20;99.90;;;;;;5120364;27;20130;-58
2023/05/02 01:22:45;;;;;;;13.02;6.88;;;10.20;99.90;;;;;;5122279;27;20423;-61
2023/05/02 01:25:29;;;;;;;13.93;6.75;;;10.20;99.90;;;;;;5122040;27;20039;-64
2023/05/02 01:28:07;;;;;;;13.18;7.15;;;10.30;99.90;;;;;;5122056;27;20384;-59
2023/05/02 01:30:36;;;;;;;12.52;7.55;;;10.30;99.90;;;;;;5122373;27;20043;-58
2023/05/02 01:33:03;;;;;;;16.20;7.50;;;10.20;99.90;;;;;;5123089;27;20040;-63
2023/05/02 01:35:31;;;;;;;14.50;6.82;;;10.20;99.90;;;;;;5121623;27;20551;-59
2023/05/02 01:38:00;;;;;;;19.10;6.32;;;10.20;99.90;;;;;;5122396;27;20047;-65
2023/05/02 01:40:26;;;;;;;13.18;5.65;;;10.20;99.90;;;;;;5122178;27;20047;-66
2023/05/02 01:42:53;;;;;;;14.38;5.68;;;10.10;99.90;;;;;;5121891;27;20050;-66
2023/05/02 01:45:20;;;;;;;17.65;5.65;;;10.10;99.90;;;;;;5121730;27;20118;-56
2023/05/02 01:47:47;;;;;;;16.88;4.43;;;10.10;99.90;;;;;;5122320;27;20031;-55
2023/05/02 01:50:19;;;;;;;16.73;5.40;;;10.10;99.90;;;;;;5120743;27;20646;-58
2023/05/02 01:52:47;;;;;;;13.30;5.35;;;10.10;99.90;;;;;;5121962;27;20082;-51
2023/05/02 01:55:14;;;;;;;15.30;4.93;;;10.00;99.90;;;;;;5122342;27;20070;-65
2023/05/02 01:57:42;;;;;;;20.63;4.50;;;10.00;99.90;;;;;;5121600;27;20114;-56
2023/05/02 02:00:09;;;;;;;19.55;5.32;;;10.00;99.90;;;;;;5122051;27;20474;-63
2023/05/02 02:02:36;;;;;;;13.50;3.75;;;9.90;99.90;;;;;;5121778;27;20047;-55
2023/05/02 02:05:04;;;;;;;10.38;3.13;;;9.90;99.90;;;;;;5121709;27;20058;-65
2023/05/02 02:07:30;;;;;;;16.50;4.43;;;9.70;99.90;;;;;;5122309;27;20039;-55
2023/05/02 02:09:56;;;;;;;17.48;4.43;;;9.60;99.90;;;;;;5121940;27;20401;-64
2023/05/02 02:12:40;;;;;;;21.10;4.47;;;9.60;99.90;;;;;;5121727;28;20039;-60
2023/05/02 02:15:17;;;;;;;13.02;3.63;;;9.50;99.90;;;;;;5121953;28;20396;-60
2023/05/02 02:17:48;;;;;;;13.95;3.78;;;9.50;99.90;;;;;;5121545;27;20047;-59
2023/05/02 02:20:15;;;;;;;15.88;4.03;;;9.60;99.90;;;;;;5121202;27;20047;-61
2023/05/02 02:22:43;;;;;;;19.67;4.82;;;9.50;99.90;;;;;;5121942;27;20458;-66
2023/05/02 02:25:14;;;;;;;24.95;5.55;;;9.40;99.90;;;;;;5121181;27;20031;-64
2023/05/02 02:27:40;;;;;;;21.25;6.13;;;9.30;99.90;;;;;;5121492;27;20051;-58
2023/05/02 02:30:07;;;;;;;24.83;5.80;;;9.20;99.90;;;;;;5122137;27;20505;-59
2023/05/02 02:32:33;;;;;;;17.30;5.47;;;9.20;99.90;;;;;;5122004;27;20043;-59
2023/05/02 02:35:00;;;;;;;21.38;5.63;;;9.10;99.90;;;;;;5121843;27;20310;-62
2023/05/02 02:37:39;;;;;;;18.30;5.03;;;9.10;99.90;;;;;;5121686;27;20055;-57
2023/05/02 02:40:28;;;;;;;21.58;5.88;;;9.10;99.90;;;;;;5119472;28;20055;-58
2023/05/02 02:43:15;;;;;;;25.80;5.25;;;9.10;99.90;;;;;;5110750;28;20063;-57
2023/05/02 02:45:49;;;;;;;26.02;6.30;;;9.10;99.90;;;;;;5121984;28;20051;-65
2023/05/02 02:48:26;;;;;;;20.75;6.30;;;9.00;99.90;;;;;;5121897;27;20084;-66
2023/05/02 02:51:08;;;;;;;23.33;5.03;;;9.00;99.90;;;;;;5124869;27;20501;-65
2023/05/02 02:54:06;;;;;;;19.63;5.10;;;8.90;99.90;;;;;;5125494;27;20110;-58
2023/05/02 02:56:45;;;;;;;21.20;5.00;;;8.90;99.90;;;;;;5085485;27;20494;-65
2023/05/02 02:59:28;;;;;;;19.98;5.22;;;8.90;99.90;;;;;;5124375;27;20043;-58
2023/05/02 03:02:21;;;;;;;21.50;5.03;;;8.90;99.90;;;;;;5125065;27;20326;-65
2023/05/02 03:04:52;;;;;;;23.65;4.82;;;8.90;99.90;;;;;;5122602;27;20254;-63
2023/05/02 03:07:18;;;;;;;18.80;4.68;;;8.90;99.90;;;;;;5124683;27;20225;-65
2023/05/02 03:09:45;;;;;;;19.83;4.40;;;8.90;99.90;;;;;;5124418;27;20114;-65
2023/05/02 03:12:11;;;;;;;19.35;4.60;;;8.80;99.90;;;;;;5124578;27;20097;-61
2023/05/02 03:14:38;;;;;;;22.55;4.20;;;8.80;99.90;;;;;;5125452;27;20079;-61
2023/05/02 03:17:07;;;;;;;17.83;4.28;;;8.90;99.90;;;;;;5124994;27;20372;-60
2023/05/02 03:19:32;;;;;;;14.43;4.10;;;8.80;99.90;;;;;;5123654;27;20063;-63
2023/05/02 03:21:58;;;;;;;15.02;4.35;;;8.80;99.90;;;;;;5123712;27;20070;-53
2023/05/02 03:24:26;;;;;;;16.92;4.43;;;8.80;99.90;;;;;;5124531;27;20366;-65
2023/05/02 03:26:57;;;;;;;14.02;3.70;;;8.70;99.90;;;;;;5124021;27;20047;-55
2023/05/02 03:29:24;;;;;;;20.05;4.45;;;8.80;99.90;;;;;;5124712;27;20043;-68
2023/05/02 03:31:50;;;;;;;17.20;4.22;;;8.70;99.90;;;;;;5124239;27;20122;-63
2023/05/02 03:34:16;;;;;;;13.32;4.18;;;8.80;99.90;;;;;;5124168;27;20107;-65
2023/05/02 03:36:42;;;;;;;16.48;3.83;;;8.80;99.90;;;;;;5123902;27;21163;-58
2023/05/02 03:39:08;;;;;;;19.90;4.30;;;8.70;99.90;;;;;;5123470;27;20088;-67
2023/05/02 03:41:33;;;;;;;17.45;4.43;;;8.70;99.90;;;;;;5123868;27;20055;-57
2023/05/02 03:43:59;;;;;;;18.30;4.45;;;8.80;99.90;;;;;;5123935;27;20361;-62
2023/05/02 03:46:25;;;;;;;19.38;3.97;;;8.60;99.90;;;;;;5124463;27;20547;-66
2023/05/02 03:48:51;;;;;;;15.38;3.75;;;8.60;99.90;;;;;;5122674;27;20066;-56
2023/05/02 03:51:16;;;;;;;15.00;3.95;;;8.60;99.90;;;;;;5122789;27;20051;-66
2023/05/02 03:53:42;;;;;;;16.48;4.20;;;8.50;99.90;;;;;;5124821;27;20039;-57
2023/05/02 03:56:08;;;;;;;13.52;4.05;;;8.50;99.90;;;;;;5124141;27;20502;-62
2023/05/02 03:58:35;;;;;;;13.60;3.67;;;8.60;99.90;;;;;;5123919;27;20035;-69
2023/05/02 04:01:00;;;;;;;17.23;4.00;;;8.40;99.90;;;;;;5123474;27;20047;-58
2023/05/02 04:03:27;;;;;;;14.13;3.50;;;8.40;99.90;;;;;;5124059;27;20042;-64
2023/05/02 04:05:53;;;;;;;12.88;3.80;;;8.40;99.90;;;;;;5123444;27;20138;-59
2023/05/02 04:08:18;;;;;;;12.80;2.95;;;8.40;99.90;;;;;;5123343;27;20130;-49
2023/05/02 04:10:44;;;;;;;10.75;3.33;;;8.40;99.90;;;;;;5123963;27;20043;-67
2023/05/02 04:13:10;;;;;;;13.15;3.25;;;8.30;99.90;;;;;;5123613;27;20038;-60
2023/05/02 04:15:36;;;;;;;12.23;2.83;;;8.30;99.90;;;;;;5123370;27;20042;-56
2023/05/02 04:18:02;;;;;;;11.90;2.78;;;8.30;99.90;;;;;;5123783;27;20077;-56
2023/05/02 04:20:28;;;;;;;12.48;2.78;;;8.20;99.90;;;;;;5122750;27;20043;-66
2023/05/02 04:22:54;;;;;;;11.65;3.08;;;8.10;99.90;;;;;;5122245;27;20047;-59
2023/05/02 04:25:19;;;;;;;13.05;3.10;;;8.20;99.90;;;;;;5123417;27;20031;-60
2023/05/02 04:27:45;;;;;;;9.13;2.60;;;8.20;99.90;;;;;;5123436;27;20039;-59
2023/05/02 04:30:11;;;;;;;11.65;2.60;;;8.20;99.90;;;;;;5110419;27;20436;-58
2023/05/02 04:32:37;;;;;;;13.07;2.97;;;8.10;99.90;;;;;;5102394;28;20075;-66
2023/05/02 04:35:03;;;;;;;8.30;2.20;;;8.10;99.90;;;;;;5102240;28;20086;-61
2023/05/02 04:37:28;;;;;;;13.65;2.75;;;8.10;99.90;;;;;;5102509;28;20102;-60
2023/05/02 04:39:54;;;;;;;18.10;3.05;;;8.10;99.90;;;;;;5102187;28;20116;-58
2023/05/02 04:42:20;;;;;;;11.60;2.40;;;8.10;99.90;;;;;;5101108;28;20071;-59
2023/05/02 04:44:48;;;;;;;11.70;2.60;;;8.10;99.90;;;;;;5101295;28;20453;-66
2023/05/02 04:47:13;;;;;;;9.90;2.03;;;8.10;99.90;;;;;;5102524;28;20448;-59
2023/05/02 04:49:39;;;;;;;8.40;2.03;;;8.10;99.90;;;;;;5101464;28;20028;-62
2023/05/02 04:52:05;;;;;;;8.63;2.10;;;8.00;99.90;;;;;;5102387;28;20047;-61
2023/05/02 04:54:32;;;;;;;8.10;2.22;;;8.10;99.90;;;;;;5102574;28;20058;-58
2023/05/02 04:56:58;;;;;;;10.30;2.17;;;8.10;99.90;;;;;;5102324;28;20036;-65
2023/05/02 04:59:24;;;;;;;10.13;2.22;;;8.10;99.90;;;;;;5102111;28;20039;-56
2023/05/02 05:01:49;;;;;;;7.07;2.13;;;8.10;99.90;;;;;;5102536;28;20050;-61
2023/05/02 05:04:15;;;;;;;7.75;2.03;;;8.10;99.90;;;;;;5102577;28;20592;-61
2023/05/02 05:06:41;;;;;;;9.25;2.38;;;8.10;99.90;;;;;;5100076;28;20052;-61
2023/05/02 05:09:07;;;;;;;8.90;2.45;;;8.00;99.90;;;;;;5102540;28;20052;-66
2023/05/02 05:11:32;;;;;;;14.57;3.05;;;8.00;99.90;;;;;;5101644;28;20192;-58
2023/05/02 05:13:58;;;;;;;11.23;2.72;;;8.00;99.90;;;;;;5101744;28;20464;-50
2023/05/02 05:16:23;;;;;;;7.65;2.53;;;8.00;99.90;;;;;;5102236;28;20485;-62
2023/05/02 05:18:49;;;;;;;11.88;2.60;;;8.00;99.90;;;;;;5100708;28;20096;-60
2023/05/02 05:21:15;;;;;;;8.23;2.42;;;8.00;99.90;;;;;;5101518;28;20051;-54
2023/05/02 05:23:44;;;;;;;12.07;2.83;;;7.90;99.90;;;;;;5101902;28;20122;-58
2023/05/02 05:26:16;;;;;;;20.92;3.10;;;7.90;99.90;;;;;;5102528;28;20103;-65
2023/05/02 05:28:42;;;;;;;10.75;3.10;;;7.90;99.90;;;;;;5101839;28;20023;-60
2023/05/02 05:31:10;;;;;;;15.15;3.38;;;7.90;99.90;;;;;;5101935;28;20040;-58
2023/05/02 05:33:37;;;;;;;13.98;3.03;;;7.90;99.90;;;;;;5102019;28;20407;-52
2023/05/02 05:36:16;;;;;;;11.82;3.50;;;7.90;99.90;;;;;;5101175;28;20083;-64
2023/05/02 05:38:42;;;;;;;13.52;3.33;;;7.90;99.90;;;;;;5101487;28;20035;-57
2023/05/02 05:41:07;;;;;;;10.65;2.95;;;7.90;99.90;;;;;;5099987;28;20051;-62
2023/05/02 05:43:33;;;;;;;11.82;3.13;;;7.80;99.90;;;;;;5101520;28;20054;-57
2023/05/02 05:45:59;;;;;;;15.10;3.03;;;8.00;99.90;;;;;;5101182;28;20285;-65
2023/05/02 05:48:25;;;;;;;10.52;3.22;;;7.80;99.90;;;;;;5102146;28;20084;-65
2023/05/02 05:50:53;;;;;;;12.38;3.10;;;7.80;99.90;;;;;;5100705;28;20047;-59
2023/05/02 05:53:19;;;;;;;12.88;3.58;;;7.90;99.90;;;;;;5101146;28;20075;-63
2023/05/02 05:55:45;;;;;;;10.23;2.95;;;7.90;99.90;;;;;;5100481;28;20494;-58
2023/05/02 05:58:11;;;;;;;12.57;3.00;;;7.80;99.90;;;;;;5102017;28;20050;-65
2023/05/02 06:00:38;;;;;;;13.48;3.22;;;7.80;99.90;;;;;;5101155;28;20101;-60
2023/05/02 06:03:04;;;;;;;12.80;2.78;;;7.80;99.90;;;;;;5101441;28;20055;-64
2023/05/02 06:05:29;;;;;;;12.52;3.08;;;7.80;99.90;;;;;;5101072;28;20043;-52
2023/05/02 06:07:58;;;;;;;11.80;3.25;;;7.80;99.90;;;;;;5100241;28;20563;-60
2023/05/02 06:10:24;;;;;;;13.20;3.10;;;7.90;99.90;;;;;;5101502;28;20051;-65
2023/05/02 06:12:50;;;;;;;12.02;2.92;;;7.90;99.90;;;;;;5101111;28;20035;-61
2023/05/02 06:15:16;;;;;;;10.20;3.50;;;8.00;99.90;;;;;;5101989;28;20031;-65
2023/05/02 06:17:42;;;;;;;9.93;2.90;;;8.00;99.90;;;;;;5100992;28;20455;-55
2023/05/02 06:20:08;;;;;;;12.30;3.45;;;8.00;99.90;;;;;;5100789;28;20052;-65
2023/05/02 06:22:34;;;;;;;13.68;3.22;;;8.00;99.90;;;;;;5101764;28;20040;-58
2023/05/02 06:25:00;;;;;;;14.20;3.40;;;8.20;99.90;;;;;;5104547;28;20506;-63
2023/05/02 06:27:26;;;;;;;15.52;3.35;;;8.10;99.90;;;;;;5105289;28;20051;-57
2023/05/02 06:29:52;;;;;;;11.68;3.20;;;8.10;99.90;;;;;;5105027;28;20077;-57
2023/05/02 06:32:18;;;;;;;14.73;3.20;;;8.10;99.90;;;;;;5105714;28;20039;-55
2023/05/02 06:34:44;;;;;;;15.23;3.17;;;8.10;99.90;;;;;;5104315;28;20043;-58
2023/05/02 06:37:10;;;;;;;15.32;3.10;;;8.30;99.90;;;;;;5104880;28;20382;-63
2023/05/02 06:39:36;;;;;;;12.18;3.42;;;8.10;99.90;;;;;;5105271;27;20090;-64
2023/05/02 06:42:02;;;;;;;10.13;3.30;;;8.40;99.90;;;;;;5102800;28;20472;-59
2023/05/02 06:44:27;;;;;;;9.38;3.20;;;8.30;99.90;;;;;;5105175;28;20054;-62
2023/05/02 06:46:54;;;;;;;11.98;2.78;;;8.40;99.90;;;;;;5105118;28;20051;-56
2023/05/02 06:49:20;;;;;;;14.70;3.38;;;8.50;99.90;;;;;;5104201;28;20452;-54
2023/05/02 06:51:46;;;;;;;12.07;3.20;;;8.60;99.90;;;;;;5103429;28;20043;-64
2023/05/02 06:54:12;;;;;;;12.32;3.72;;;8.70;99.90;;;;;;5104252;28;20505;-59
2023/05/02 06:56:37;;;;;;;10.73;3.58;;;8.70;99.90;;;;;;5104894;28;20047;-63
2023/05/02 06:59:04;;;;;;;11.73;2.90;;;8.70;99.90;;;;;;5103925;28;20032;-56
2023/05/02 07:01:30;;;;;;;9.15;3.35;;;8.80;99.90;;;;;;5104738;28;20234;-64
2023/05/02 07:03:56;;;;;;;9.55;2.88;;;8.70;99.90;;;;;;5103219;28;20120;-57
2023/05/02 07:06:21;;;;;;;12.20;3.53;;;8.80;99.90;;;;;;5103264;28;20122;-54
2023/05/02 07:08:47;;;;;;;11.88;3.65;;;8.70;99.90;;;;;;5105108;28;20053;-64
2023/05/02 07:11:12;;;;;;;12.32;3.67;;;8.70;99.90;;;;;;5104227;28;20048;-58
2023/05/02 07:13:38;;;;;;;9.95;2.85;;;8.70;99.90;;;;;;5104871;28;20707;-64
2023/05/02 07:16:04;;;;;;;12.13;3.25;;;9.00;99.90;;;;;;5104323;28;20050;-65
2023/05/02 07:18:30;;;;;;;16.27;3.47;;;8.80;99.90;;;;;;5102666;28;20047;-58
2023/05/02 07:20:55;;;;;;;8.68;3.20;;;8.80;99.90;;;;;;5103350;28;20035;-62
2023/05/02 07:23:21;;;;;;;11.40;2.92;;;8.80;99.90;;;;;;5103777;28;20185;-52
2023/05/02 07:25:47;;;;;;;9.15;3.35;;;8.70;99.90;;;;;;5104169;28;20144;-63
2023/05/02 07:28:13;;;;;;;11.73;3.55;;;8.70;99.90;;;;;;5104424;28;20646;-66
2023/05/02 07:30:38;;;;;;;10.68;3.15;;;8.70;99.90;;;;;;5103955;28;20342;-51
2023/05/02 07:33:04;;;;;;;10.95;2.97;;;8.80;99.90;;;;;;5103598;28;20375;-61
2023/05/02 07:35:30;;;;;;;11.88;3.30;;;8.90;99.90;;;;;;5102974;28;20043;-55
2023/05/02 07:37:55;;;;;;;11.18;3.05;;;9.00;99.90;;;;;;5102109;28;20096;-54
2023/05/02 07:40:21;;;;;;;13.30;2.95;;;9.00;99.90;;;;;;5103387;28;20044;-65
2023/05/02 07:42:47;;;;;;;9.20;3.30;;;9.10;99.90;;;;;;5103733;28;20044;-58
2023/05/02 07:45:13;;;;;;;9.35;2.92;;;9.20;99.90;;;;;;5104212;28;20079;-63
2023/05/02 07:47:39;;;;;;;11.80;3.28;;;9.20;99.90;;;;;;5104212;28;20147;-56
2023/05/02 07:50:05;;;;;;;9.85;2.80;;;9.50;99.90;;;;;;5100693;28;20124;-53
2023/05/02 07:52:31;;;;;;;11.05;2.80;;;9.40;99.90;;;;;;5103866;28;20051;-68
2023/05/02 07:54:57;;;;;;;9.38;3.35;;;9.40;99.90;;;;;;5101831;28;20664;-60
2023/05/02 07:57:22;;;;;;;12.35;3.03;;;9.50;99.90;;;;;;5103598;28;20631;-59
2023/05/02 07:59:48;;;;;;;13.50;3.13;;;9.60;99.90;;;;;;5103705;28;20670;-58
2023/05/02 08:02:16;;;;;;;9.05;3.20;;;9.70;99.90;;;;;;5103266;28;20052;-67
2023/05/02 08:04:42;;;;;;;9.10;2.90;;;9.80;99.80;;;;;;5103099;28;20491;-58
2023/05/02 08:07:07;;;;;;;8.68;2.80;;;10.20;99.90;;;;;;5102478;28;20239;-63
2023/05/02 08:09:33;;;;;;;9.30;3.03;;;10.20;99.20;;;;;;5104061;28;20028;-63
2023/05/02 08:12:01;;;;;;;14.25;3.40;;;10.40;98.60;;;;;;5103228;28;20051;-56
2023/05/02 08:14:27;;;;;;;6.85;2.80;;;10.60;99.10;;;;;;5101076;28;20137;-66
2023/05/02 08:16:52;;;;;;;11.82;2.70;;;10.60;97.70;;;;;;5103448;28;20120;-54
2023/05/02 08:19:18;;;;;;;8.35;2.55;;;10.60;98.30;;;;;;5102394;28;20043;-63
2023/05/02 08:21:44;;;;;;;6.88;2.17;;;10.60;98.30;;;;;;5102803;28;20478;-62
2023/05/02 08:24:09;;;;;;;9.00;2.58;;;10.60;98.20;;;;;;5101006;28;20075;-59
2023/05/02 08:26:35;;;;;;;9.73;2.70;;;10.60;98.80;;;;;;5102939;28;20043;-63
2023/05/02 08:29:03;;;;;;;7.72;2.90;;;10.70;99.10;;;;;;5103104;28;20047;-55
2023/05/02 08:31:29;;;;;;;8.55;2.58;;;10.70;98.90;;;;;;5101350;28;20043;-67
2023/05/02 08:33:55;;;;;;;8.35;2.30;;;10.60;99.10;;;;;;5103030;28;20081;-55
2023/05/02 08:36:20;;;;;;;5.40;2.00;;;10.60;99.20;;;;;;5101535;28;20046;-63
2023/05/02 08:38:46;;;;;;;5.65;2.08;;;10.70;99.00;;;;;;5103051;28;20347;-64
2023/05/02 08:41:19;;;;;;;6.38;1.70;;;10.90;98.40;;;;;;5103100;28;20212;-55
2023/05/02 08:43:45;;;;;;;7.45;1.83;;;11.30;97.40;;;;;;5104954;28;20047;-61
2023/05/02 08:46:13;;;;;;;5.18;1.90;;;11.60;97.60;;;;;;5103160;28;20035;-53
2023/05/02 08:48:40;;;;;;;4.45;1.52;;;11.80;96.80;;;;;;5103945;28;20043;-66
2023/05/02 08:51:09;;;;;;;4.75;1.60;;;12.10;96.10;;;;;;5103580;28;20044;-66
2023/05/02 08:53:36;;;;;;;6.38;1.50;;;12.20;95.60;;;;;;5104343;28;20043;-60
2023/05/02 08:56:02;;;;;;;7.00;1.50;;;12.00;95.10;;;;;;5104048;28;20729;-67
2023/05/02 08:58:29;;;;;;;6.25;1.58;;;11.90;95.20;;;;;;5109798;27;20412;-53
2023/05/02 09:00:57;;;;;;;5.78;1.83;;;11.80;95.30;;;;;;5101717;28;20318;-60
2023/05/02 09:03:34;;;;;;;7.38;1.63;;;12.00;95.20;;;;;;5101676;28;20047;-61
2023/05/02 09:06:17;;;;;;;5.00;1.83;;;12.10;94.70;;;;;;5101087;28;20382;-57
2023/05/02 09:08:45;;;;;;;5.72;1.67;;;12.20;94.30;;;;;;5101090;28;20118;-64
2023/05/02 09:11:12;;;;;;;7.93;1.60;;;12.20;94.50;;;;;;5102064;28;20040;-54
2023/05/02 09:13:49;;;;;;;6.47;1.55;;;11.90;93.20;;;;;;5102063;28;20280;-63
2023/05/02 09:16:24;;;;;;;7.28;1.50;;;11.50;92.90;;;;;;5101872;28;20040;-63
2023/05/02 09:18:54;;;;;;;5.80;1.50;;;11.30;93.60;;;;;;5102245;28;20052;-59
2023/05/02 09:21:22;;;;;;;6.10;1.58;;;11.10;94.20;;;;;;5100799;28;20722;-60
2023/05/02 09:23:52;;;;;;;6.95;1.67;;;10.90;94.30;;;;;;5099949;28;20073;-52
2023/05/02 09:26:18;;;;;;;3.67;1.40;;;10.90;94.80;;;;;;5101403;28;20566;-58
2023/05/02 09:28:48;;;;;;;8.30;1.33;;;11.20;96.20;;;;;;5103086;28;20036;-57
2023/05/02 09:31:20;;;;;;;3.85;1.10;;;11.30;95.00;;;;;;5101730;28;20037;-61
2023/05/02 09:33:46;;;;;;;7.72;1.60;;;11.30;94.40;;;;;;5101217;28;20044;-60
2023/05/02 09:36:14;;;;;;;6.68;1.60;;;11.30;94.20;;;;;;5100542;28;20410;-60
2023/05/02 09:38:41;;;;;;;7.07;1.83;;;11.10;94.10;;;;;;5101715;28;20124;-59
2023/05/02 09:41:08;;;;;;;7.00;1.73;;;11.00;94.00;;;;;;5101311;28;20140;-58
2023/05/02 09:43:33;;;;;;;5.18;1.23;;;11.00;94.30;;;;;;5100993;28;20331;-60
2023/05/02 09:46:02;;;;;;;4.70;1.45;;;11.00;94.50;;;;;;5101984;28;20039;-59
2023/05/02 09:48:29;;;;;;;5.78;1.65;;;11.00;94.40;;;;;;5101742;28;20128;-57
2023/05/02 09:50:56;;;;;;;4.30;1.40;;;11.10;94.50;;;;;;5099491;28;20054;-50
2023/05/02 09:53:25;;;;;;;4.60;1.60;;;11.30;94.30;;;;;;5099819;28;20724;-57
2023/05/02 09:56:04;;;;;;;6.20;1.40;;;11.50;94.30;;;;;;5100361;28;20040;-57
2023/05/02 09:58:30;;;;;;;7.53;1.80;;;11.60;94.00;;;;;;5104993;28;20047;-56
2023/05/02 10:00:57;;;;;;;7.38;1.60;;;11.60;94.20;;;;;;5105947;28;20042;-60
2023/05/02 10:03:25;;;;;;;4.28;1.25;;;11.50;93.90;;;;;;5105841;28;20088;-54
2023/05/02 10:05:53;;;;;;;8.73;1.70;;;11.40;93.90;;;;;;5104756;28;20051;-60
2023/05/02 10:08:19;;;;;;;5.20;1.50;;;11.30;93.80;;;;;;5105668;28;20114;-56
2023/05/02 10:10:49;;;;;;;3.90;1.27;;;11.20;94.10;;;;;;5106035;28;20383;-59
2023/05/02 10:13:19;;;;;;;5.07;1.17;;;11.10;93.80;;;;;;5104525;28;20058;-55
2023/05/02 10:15:48;;;;;;;3.33;1.38;;;11.10;93.90;;;;;;5106142;28;20040;-50
2023/05/02 10:18:20;;;;;;;7.32;1.70;;;11.00;94.50;;;;;;5105529;28;20031;-58
2023/05/02 10:21:00;;;;;;;4.45;1.13;;;11.10;95.60;;;;;;5103693;27;20565;-57
2023/05/02 10:23:28;;;;;;;6.80;1.40;;;11.10;95.20;;;;;;5105611;28;20048;-59
2023/05/02 10:25:54;;;;;;;6.22;1.48;;;11.20;95.60;;;;;;5105153;28;20044;-56
2023/05/02 10:28:20;;;;;;;4.78;1.40;;;11.20;95.80;;;;;;5105396;28;20044;-53
2023/05/02 10:30:48;;;;;;;7.75;1.73;;;11.10;95.70;;;;;;5105325;28;20047;-57
2023/05/02 10:33:16;;;;;;;4.72;1.50;;;11.00;96.20;;;;;;5105029;27;20550;-57
2023/05/02 10:35:46;;;;;;;6.70;1.50;;;10.80;96.60;;;;;;5102456;28;20043;-55
2023/05/02 10:38:18;;;;;;;5.07;1.27;;;10.80;96.60;;;;;;5105478;28;20039;-59
2023/05/02 10:40:54;;;;;;;4.75;1.20;;;10.70;96.20;;;;;;5104393;28;20051;-53
2023/05/02 10:43:23;;;;;;;5.25;1.40;;;10.80;96.40;;;;;;5105159;28;20123;-59
2023/05/02 10:45:50;;;;;;;5.72;1.40;;;10.90;96.70;;;;;;5104976;27;20527;-57
2023/05/02 10:48:21;;;;;;;4.03;1.45;;;11.20;96.70;;;;;;5104650;28;20137;-59
2023/05/02 10:50:53;;;;;;;7.15;1.60;;;11.60;96.80;;;;;;5104094;28;20542;-57
2023/05/02 10:53:35;;;;;;;3.08;1.38;;;12.10;96.40;;;;;;5104560;28;20233;-57
2023/05/02 10:56:16;;;;;;;5.97;1.60;;;12.30;96.10;;;;;;5103651;28;20044;-58
2023/05/02 10:58:43;;;;;;;5.00;1.40;;;12.40;95.40;;;;;;5104634;28;20394;-55
2023/05/02 11:01:26;;;;;;;4.50;1.00;;;12.30;95.30;;;;;;5104642;28;20043;-59
2023/05/02 11:04:13;;;;;;;3.47;1.10;;;12.00;94.80;;;;;;5103884;28;20292;-53
2023/05/02 11:07:01;;;;;;;5.75;1.35;;;11.70;94.00;;;;;;5104915;28;20062;-56
2023/05/02 11:09:26;;;;;;;6.07;1.30;;;11.50;94.70;;;;;;5103340;28;20043;-59
2023/05/02 11:11:55;;;;;;;4.25;1.02;;;11.40;95.30;;;;;;5104149;28;20035;-53
2023/05/02 11:14:29;;;;;;;3.78;1.10;;;11.50;94.90;;;;;;5104574;28;20044;-57
2023/05/02 11:16:58;;;;;;;4.70;1.17;;;11.70;96.20;;;;;;5102016;28;20113;-59
2023/05/02 11:19:25;;;;;;;5.47;1.20;;;12.10;95.90;;;;;;5103726;28;20044;-53
2023/05/02 11:21:53;;;;;;;4.35;1.00;;;12.60;95.10;;;;;;5104271;28;20403;-56
2023/05/02 11:24:58;;;;;;;4.55;1.17;;;12.80;93.90;;;;;;5101857;28;20046;-50
2023/05/02 11:27:29;;;;;;;5.82;1.02;;;13.10;93.30;;;;;;5022407;28;20412;-54
2023/05/02 11:29:56;;;;;;;4.60;1.23;;;13.10;92.60;;;;;;5023556;28;20474;-57
2023/05/02 11:32:24;;;;;;;3.65;1.00;;;13.00;93.10;;;;;;5065934;28;20422;-59
2023/05/02 11:34:51;;;;;;;3.92;1.30;;;12.80;93.60;;;;;;5103511;28;20181;-52
2023/05/02 11:37:18;;;;;;;3.30;1.00;;;12.80;93.40;;;;;;5103973;28;20426;-51
2023/05/02 11:39:45;;;;;;;4.78;0.98;;;12.60;93.20;;;;;;5103803;28;20062;-57
2023/05/02 11:42:31;;;;;;;3.78;0.90;;;12.30;93.00;;;;;;5103380;28;20056;-55
2023/05/02 11:44:58;;;;;;;4.60;1.10;;;12.40;92.80;;;;;;5104041;28;20070;-56
2023/05/02 11:47:26;;;;;;;4.28;1.10;;;12.90;93.10;;;;;;5102366;28;20040;-57
2023/05/02 11:49:53;;;;;;;3.58;1.00;;;13.10;92.90;;;;;;5102327;28;20060;-53
2023/05/02 11:52:19;;;;;;;4.00;1.30;;;13.20;93.00;;;;;;5103718;28;20395;-50
2023/05/02 11:54:46;;;;;;;3.50;0.93;;;13.10;93.00;;;;;;5103685;28;20051;-56
2023/05/02 11:57:11;;;;;;;3.60;1.25;;;13.10;92.90;;;;;;5102584;28;20069;-50
2023/05/02 11:59:54;;;;;;;7.88;1.70;;;12.90;93.00;;;;;;5103812;28;20048;-58
2023/05/02 12:02:44;;;;;;;4.88;1.20;;;12.80;93.20;;;;;;5102915;28;20055;-55
2023/05/02 12:05:13;;;;;;;4.05;1.17;;;12.60;93.30;;;;;;5102572;28;20502;-55
2023/05/02 12:07:40;;;;;;;6.00;1.35;;;12.40;93.60;;;;;;5103352;28;20050;-57
2023/05/02 12:10:07;;;;;;;6.20;1.30;;;12.30;94.30;;;;;;5102779;28;20070;-54
2023/05/02 12:12:34;;;;;;;4.53;1.20;;;12.20;95.20;;;;;;5102021;28;20039;-60
2023/05/02 12:15:04;;;;;;;4.35;1.20;;;12.00;95.60;;;;;;5102788;28;20048;-55
2023/05/02 12:17:31;;;;;;;6.80;1.52;;;11.90;96.30;;;;;;5104389;28;20052;-59
2023/05/02 12:19:57;;;;;;;6.10;1.98;;;11.90;96.90;;;;;;5104403;28;20035;-57
2023/05/02 12:22:24;;;;;;;4.90;1.20;;;12.00;97.10;;;;;;5102921;28;20039;-61
2023/05/02 12:24:52;;;;;;;6.03;1.30;;;12.00;97.20;;;;;;5101963;28;20161;-54
2023/05/02 12:27:18;;;;;;;2.83;1.02;;;12.10;96.80;;;;;;5102970;28;20047;-61
2023/05/02 12:29:46;;;;;;;3.90;0.90;;;12.40;96.50;;;;;;5102301;28;20133;-56
2023/05/02 12:32:12;;;;;;;3.78;0.90;;;12.80;95.40;;;;;;5102431;28;20122;-59
2023/05/02 12:34:39;;;;;;;4.60;1.30;;;13.10;94.80;;;;;;5100796;28;20053;-56
2023/05/02 12:37:06;;;;;;;4.60;1.25;;;13.20;94.50;;;;;;5102915;28;20795;-61
2023/05/02 12:39:36;;;;;;;5.75;1.13;;;13.00;94.70;;;;;;5102253;28;20031;-57
2023/05/02 12:42:12;;;;;;;4.35;1.10;;;12.80;94.70;;;;;;5102638;28;20063;-55
2023/05/02 12:44:39;;;;;;;3.35;1.23;;;12.70;95.00;;;;;;5101673;28;20051;-61
2023/05/02 12:47:06;;;;;;;3.20;1.13;;;12.50;95.50;;;;;;5101731;28;20035;-56
2023/05/02 12:49:32;;;;;;;4.53;1.30;;;12.40;95.70;;;;;;5102265;28;20216;-61
2023/05/02 12:51:58;;;;;;;5.93;0.95;;;12.30;96.40;;;;;;5101098;28;20043;-57